sensor_id;sensor_type;location;lat;lon;timestamp;P1;durP1;ratioP1;P2;durP2;ratioP2
19951;SDS011;10137;49.406;19.484;2023-05-23T00:01:59;9.80;;;6.17;;
19951;SDS011;10137;49.406;19.484;2023-05-23T00:04:27;9.27;;;6.17;;
19951;SDS011;10137;49.406;19.484;2023-05-23T00:06:58;11.90;;;6.13;;
19951;SDS011;10137;49.406;19.484;2023-05-23T00:09:26;12.50;;;5.93;;
19951;SDS011;10137;49.406;19.484;2023-05-23T00:11:56;8.90;;;5.90;;
19951;SDS011;10137;49.406;19.484;2023-05-23T00:14:24;10.47;;;5.63;;
19951;SDS011;10137;49.406;19.484;2023-05-23T00:16:53;11.33;;;5.53;;
19951;SDS011;10137;49.406;19.484;2023-05-23T00:19:21;9.47;;;5.43;;
19951;SDS011;10137;49.406;19.484;2023-05-23T00:21:51;9.80;;;5.70;;
19951;SDS011;10137;49.406;19.484;2023-05-23T00:24:23;9.83;;;5.90;;
19951;SDS011;10137;49.406;19.484;2023-05-23T00:26:51;14.07;;;5.87;;
19951;SDS011;10137;49.406;19.484;2023-05-23T00:29:29;8.43;;;5.47;;
19951;SDS011;10137;49.406;19.484;2023-05-23T00:31:58;9.17;;;5.37;;
19951;SDS011;10137;49.406;19.484;2023-05-23T00:34:26;8.27;;;4.80;;
19951;SDS011;10137;49.406;19.484;2023-05-23T00:36:54;10.20;;;5.73;;
19951;SDS011;10137;49.406;19.484;2023-05-23T00:39:23;13.63;;;6.07;;
19951;SDS011;10137;49.406;19.484;2023-05-23T00:41:51;8.37;;;5.23;;
19951;SDS011;10137;49.406;19.484;2023-05-23T00:44:19;11.33;;;5.77;;
19951;SDS011;10137;49.406;19.484;2023-05-23T00:46:50;16.33;;;6.23;;
19951;SDS011;10137;49.406;19.484;2023-05-23T00:49:22;11.30;;;5.60;;
19951;SDS011;10137;49.406;19.484;2023-05-23T00:51:53;12.10;;;5.93;;
19951;SDS011;10137;49.406;19.484;2023-05-23T00:54:23;8.40;;;5.40;;
19951;SDS011;10137;49.406;19.484;2023-05-23T00:56:53;9.00;;;6.33;;
19951;SDS011;10137;49.406;19.484;2023-05-23T00:59:22;8.37;;;5.27;;
19951;SDS011;10137;49.406;19.484;2023-05-23T01:01:53;9.83;;;6.00;;
19951;SDS011;10137;49.406;19.484;2023-05-23T01:04:23;9.20;;;5.20;;
19951;SDS011;10137;49.406;19.484;2023-05-23T01:06:53;13.53;;;5.80;;
19951;SDS011;10137;49.406;19.484;2023-05-23T01:09:22;11.87;;;6.00;;
19951;SDS011;10137;49.406;19.484;2023-05-23T01:11:57;9.63;;;5.30;;
19951;SDS011;10137;49.406;19.484;2023-05-23T01:14:41;9.53;;;5.40;;
19951;SDS011;10137;49.406;19.484;2023-05-23T01:17:16;8.97;;;5.13;;
19951;SDS011;10137;49.406;19.484;2023-05-23T01:19:59;8.97;;;5.47;;
19951;SDS011;10137;49.406;19.484;2023-05-23T01:22:39;9.03;;;5.30;;
19951;SDS011;10137;49.406;19.484;2023-05-23T01:25:22;10.20;;;5.33;;
19951;SDS011;10137;49.406;19.484;2023-05-23T01:27:59;7.43;;;5.07;;
19951;SDS011;10137;49.406;19.484;2023-05-23T01:30:31;9.43;;;5.73;;
19951;SDS011;10137;49.406;19.484;2023-05-23T01:33:08;10.27;;;6.07;;
19951;SDS011;10137;49.406;19.484;2023-05-23T01:35:37;10.90;;;5.67;;
19951;SDS011;10137;49.406;19.484;2023-05-23T01:38:08;9.60;;;5.93;;
19951;SDS011;10137;49.406;19.484;2023-05-23T01:40:39;11.43;;;5.90;;
19951;SDS011;10137;49.406;19.484;2023-05-23T01:43:10;9.70;;;5.30;;
19951;SDS011;10137;49.406;19.484;2023-05-23T01:45:39;8.97;;;5.60;;
19951;SDS011;10137;49.406;19.484;2023-05-23T01:48:07;6.87;;;5.30;;
19951;SDS011;10137;49.406;19.484;2023-05-23T01:50:37;8.70;;;5.33;;
19951;SDS011;10137;49.406;19.484;2023-05-23T01:53:07;9.87;;;5.40;;
19951;SDS011;10137;49.406;19.484;2023-05-23T01:55:36;17.70;;;5.73;;
19951;SDS011;10137;49.406;19.484;2023-05-23T01:58:06;8.83;;;5.30;;
19951;SDS011;10137;49.406;19.484;2023-05-23T02:00:44;10.03;;;5.40;;
19951;SDS011;10137;49.406;19.484;2023-05-23T02:03:12;10.10;;;5.53;;
19951;SDS011;10137;49.406;19.484;2023-05-23T02:05:41;11.93;;;5.60;;
19951;SDS011;10137;49.406;19.484;2023-05-23T02:08:09;8.37;;;5.53;;
19951;SDS011;10137;49.406;19.484;2023-05-23T02:10:43;9.10;;;5.83;;
19951;SDS011;10137;49.406;19.484;2023-05-23T02:13:11;9.13;;;5.07;;
19951;SDS011;10137;49.406;19.484;2023-05-23T02:15:39;8.00;;;5.40;;
19951;SDS011;10137;49.406;19.484;2023-05-23T02:18:09;9.73;;;5.03;;
19951;SDS011;10137;49.406;19.484;2023-05-23T02:20:37;8.77;;;5.10;;
19951;SDS011;10137;49.406;19.484;2023-05-23T02:23:05;6.80;;;5.10;;
19951;SDS011;10137;49.406;19.484;2023-05-23T02:25:33;9.07;;;4.93;;
19951;SDS011;10137;49.406;19.484;2023-05-23T02:28:02;8.40;;;5.40;;
19951;SDS011;10137;49.406;19.484;2023-05-23T02:30:32;7.97;;;5.03;;
19951;SDS011;10137;49.406;19.484;2023-05-23T02:33:03;9.80;;;5.00;;
19951;SDS011;10137;49.406;19.484;2023-05-23T02:35:36;6.87;;;4.80;;
19951;SDS011;10137;49.406;19.484;2023-05-23T02:38:04;10.87;;;5.40;;
19951;SDS011;10137;49.406;19.484;2023-05-23T02:40:33;9.33;;;4.83;;
19951;SDS011;10137;49.406;19.484;2023-05-23T02:43:01;8.00;;;4.60;;
19951;SDS011;10137;49.406;19.484;2023-05-23T02:45:29;8.57;;;5.30;;
19951;SDS011;10137;49.406;19.484;2023-05-23T02:47:59;8.97;;;5.60;;
19951;SDS011;10137;49.406;19.484;2023-05-23T02:50:27;8.37;;;5.47;;
19951;SDS011;10137;49.406;19.484;2023-05-23T02:52:57;10.93;;;4.97;;
19951;SDS011;10137;49.406;19.484;2023-05-23T02:55:25;9.87;;;5.40;;
19951;SDS011;10137;49.406;19.484;2023-05-23T02:57:54;12.87;;;4.93;;
19951;SDS011;10137;49.406;19.484;2023-05-23T03:00:23;14.87;;;5.60;;
19951;SDS011;10137;49.406;19.484;2023-05-23T03:02:55;9.57;;;5.70;;
19951;SDS011;10137;49.406;19.484;2023-05-23T03:05:22;13.27;;;5.50;;
19951;SDS011;10137;49.406;19.484;2023-05-23T03:07:50;11.20;;;5.70;;
19951;SDS011;10137;49.406;19.484;2023-05-23T03:10:21;9.37;;;4.73;;
19951;SDS011;10137;49.406;19.484;2023-05-23T03:12:52;10.47;;;5.30;;
19951;SDS011;10137;49.406;19.484;2023-05-23T03:15:21;8.53;;;5.43;;
19951;SDS011;10137;49.406;19.484;2023-05-23T03:17:50;9.70;;;5.37;;
19951;SDS011;10137;49.406;19.484;2023-05-23T03:20:20;7.90;;;5.37;;
19951;SDS011;10137;49.406;19.484;2023-05-23T03:22:48;12.37;;;5.13;;
19951;SDS011;10137;49.406;19.484;2023-05-23T03:25:25;7.83;;;5.17;;
19951;SDS011;10137;49.406;19.484;2023-05-23T03:27:53;11.43;;;5.40;;
19951;SDS011;10137;49.406;19.484;2023-05-23T03:30:24;7.70;;;4.90;;
19951;SDS011;10137;49.406;19.484;2023-05-23T03:32:56;10.60;;;5.07;;
19951;SDS011;10137;49.406;19.484;2023-05-23T03:35:28;9.20;;;4.80;;
19951;SDS011;10137;49.406;19.484;2023-05-23T03:37:55;6.80;;;4.70;;
19951;SDS011;10137;49.406;19.484;2023-05-23T03:40:28;9.77;;;5.17;;
19951;SDS011;10137;49.406;19.484;2023-05-23T03:43:02;10.83;;;4.97;;
19951;SDS011;10137;49.406;19.484;2023-05-23T03:45:34;7.13;;;5.07;;
19951;SDS011;10137;49.406;19.484;2023-05-23T03:48:04;11.20;;;5.60;;
19951;SDS011;10137;49.406;19.484;2023-05-23T03:50:32;9.67;;;5.00;;
19951;SDS011;10137;49.406;19.484;2023-05-23T03:53:01;10.10;;;5.77;;
19951;SDS011;10137;49.406;19.484;2023-05-23T03:55:34;8.67;;;5.10;;
19951;SDS011;10137;49.406;19.484;2023-05-23T03:58:02;18.17;;;6.33;;
19951;SDS011;10137;49.406;19.484;2023-05-23T04:00:30;12.07;;;5.20;;
19951;SDS011;10137;49.406;19.484;2023-05-23T04:02:59;13.00;;;5.33;;
19951;SDS011;10137;49.406;19.484;2023-05-23T04:05:27;13.53;;;5.80;;
19951;SDS011;10137;49.406;19.484;2023-05-23T04:07:55;12.80;;;5.17;;
19951;SDS011;10137;49.406;19.484;2023-05-23T04:10:26;10.00;;;5.30;;
19951;SDS011;10137;49.406;19.484;2023-05-23T04:12:55;8.60;;;4.97;;
19951;SDS011;10137;49.406;19.484;2023-05-23T04:15:24;8.33;;;5.23;;
19951;SDS011;10137;49.406;19.484;2023-05-23T04:17:53;7.67;;;4.93;;
19951;SDS011;10137;49.406;19.484;2023-05-23T04:20:22;10.80;;;5.33;;
19951;SDS011;10137;49.406;19.484;2023-05-23T04:22:50;9.40;;;5.07;;
19951;SDS011;10137;49.406;19.484;2023-05-23T04:25:18;8.97;;;5.47;;
19951;SDS011;10137;49.406;19.484;2023-05-23T04:27:50;7.33;;;4.90;;
19951;SDS011;10137;49.406;19.484;2023-05-23T04:30:24;13.30;;;5.40;;
19951;SDS011;10137;49.406;19.484;2023-05-23T04:32:55;9.40;;;5.00;;
19951;SDS011;10137;49.406;19.484;2023-05-23T04:35:24;10.23;;;5.53;;
19951;SDS011;10137;49.406;19.484;2023-05-23T04:37:53;10.47;;;5.07;;
19951;SDS011;10137;49.406;19.484;2023-05-23T04:40:22;17.73;;;5.63;;
19951;SDS011;10137;49.406;19.484;2023-05-23T04:42:50;11.00;;;5.27;;
19951;SDS011;10137;49.406;19.484;2023-05-23T04:45:17;7.70;;;4.80;;
19951;SDS011;10137;49.406;19.484;2023-05-23T04:47:47;24.90;;;6.03;;
19951;SDS011;10137;49.406;19.484;2023-05-23T04:50:14;12.10;;;5.13;;
19951;SDS011;10137;49.406;19.484;2023-05-23T04:52:43;10.00;;;5.30;;
19951;SDS011;10137;49.406;19.484;2023-05-23T04:55:12;11.17;;;5.00;;
19951;SDS011;10137;49.406;19.484;2023-05-23T04:57:40;9.47;;;5.00;;
19951;SDS011;10137;49.406;19.484;2023-05-23T05:00:08;13.47;;;4.77;;
19951;SDS011;10137;49.406;19.484;2023-05-23T05:02:38;12.63;;;4.93;;
19951;SDS011;10137;49.406;19.484;2023-05-23T05:05:08;14.20;;;5.83;;
19951;SDS011;10137;49.406;19.484;2023-05-23T05:07:36;13.37;;;5.27;;
19951;SDS011;10137;49.406;19.484;2023-05-23T05:10:05;9.07;;;5.20;;
19951;SDS011;10137;49.406;19.484;2023-05-23T05:12:37;9.77;;;4.50;;
19951;SDS011;10137;49.406;19.484;2023-05-23T05:15:05;9.90;;;5.00;;
19951;SDS011;10137;49.406;19.484;2023-05-23T05:17:43;7.93;;;4.60;;
19951;SDS011;10137;49.406;19.484;2023-05-23T05:20:13;7.37;;;4.23;;
19951;SDS011;10137;49.406;19.484;2023-05-23T05:22:42;12.37;;;5.03;;
19951;SDS011;10137;49.406;19.484;2023-05-23T05:25:10;8.73;;;4.97;;
19951;SDS011;10137;49.406;19.484;2023-05-23T05:27:38;9.67;;;4.67;;
19951;SDS011;10137;49.406;19.484;2023-05-23T05:30:07;9.27;;;4.93;;
19951;SDS011;10137;49.406;19.484;2023-05-23T05:32:37;7.40;;;4.90;;
19951;SDS011;10137;49.406;19.484;2023-05-23T05:35:07;9.17;;;4.57;;
19951;SDS011;10137;49.406;19.484;2023-05-23T05:37:44;8.50;;;4.77;;
19951;SDS011;10137;49.406;19.484;2023-05-23T05:40:13;6.63;;;4.47;;
19951;SDS011;10137;49.406;19.484;2023-05-23T05:42:43;10.00;;;4.80;;
19951;SDS011;10137;49.406;19.484;2023-05-23T05:45:12;8.87;;;4.93;;
19951;SDS011;10137;49.406;19.484;2023-05-23T05:47:42;8.07;;;4.80;;
19951;SDS011;10137;49.406;19.484;2023-05-23T05:50:13;11.87;;;5.03;;
19951;SDS011;10137;49.406;19.484;2023-05-23T05:52:44;8.00;;;4.90;;
19951;SDS011;10137;49.406;19.484;2023-05-23T05:55:15;9.60;;;4.97;;
19951;SDS011;10137;49.406;19.484;2023-05-23T05:57:48;7.57;;;5.00;;
19951;SDS011;10137;49.406;19.484;2023-05-23T06:00:16;8.90;;;5.73;;
19951;SDS011;10137;49.406;19.484;2023-05-23T06:02:48;9.17;;;5.10;;
19951;SDS011;10137;49.406;19.484;2023-05-23T06:05:17;9.23;;;5.60;;
19951;SDS011;10137;49.406;19.484;2023-05-23T06:07:48;16.13;;;5.90;;
19951;SDS011;10137;49.406;19.484;2023-05-23T06:10:17;10.93;;;5.87;;
19951;SDS011;10137;49.406;19.484;2023-05-23T06:12:46;11.03;;;5.20;;
19951;SDS011;10137;49.406;19.484;2023-05-23T06:15:14;15.53;;;5.60;;
19951;SDS011;10137;49.406;19.484;2023-05-23T06:17:42;9.10;;;5.83;;
19951;SDS011;10137;49.406;19.484;2023-05-23T06:20:25;12.70;;;5.43;;
19951;SDS011;10137;49.406;19.484;2023-05-23T06:22:56;7.20;;;4.73;;
19951;SDS011;10137;49.406;19.484;2023-05-23T06:25:24;8.43;;;5.27;;
19951;SDS011;10137;49.406;19.484;2023-05-23T06:27:53;9.33;;;5.07;;
19951;SDS011;10137;49.406;19.484;2023-05-23T06:30:25;13.73;;;5.53;;
19951;SDS011;10137;49.406;19.484;2023-05-23T06:32:57;15.07;;;5.73;;
19951;SDS011;10137;49.406;19.484;2023-05-23T06:35:26;8.03;;;5.20;;
19951;SDS011;10137;49.406;19.484;2023-05-23T06:37:54;6.83;;;5.37;;
19951;SDS011;10137;49.406;19.484;2023-05-23T06:40:24;14.03;;;5.30;;
19951;SDS011;10137;49.406;19.484;2023-05-23T06:42:53;12.40;;;5.73;;
19951;SDS011;10137;49.406;19.484;2023-05-23T06:45:20;14.33;;;5.70;;
19951;SDS011;10137;49.406;19.484;2023-05-23T06:47:52;12.07;;;5.47;;
19951;SDS011;10137;49.406;19.484;2023-05-23T06:50:20;7.47;;;5.00;;
19951;SDS011;10137;49.406;19.484;2023-05-23T06:52:48;11.17;;;5.60;;
19951;SDS011;10137;49.406;19.484;2023-05-23T06:55:17;11.70;;;5.13;;
19951;SDS011;10137;49.406;19.484;2023-05-23T06:57:46;10.73;;;5.53;;
19951;SDS011;10137;49.406;19.484;2023-05-23T07:00:17;8.80;;;5.20;;
19951;SDS011;10137;49.406;19.484;2023-05-23T07:02:47;7.67;;;5.67;;
19951;SDS011;10137;49.406;19.484;2023-05-23T07:05:17;10.67;;;5.23;;
19951;SDS011;10137;49.406;19.484;2023-05-23T07:07:47;10.13;;;4.70;;
19951;SDS011;10137;49.406;19.484;2023-05-23T07:10:14;7.77;;;4.73;;
19951;SDS011;10137;49.406;19.484;2023-05-23T07:12:42;10.33;;;5.97;;
19951;SDS011;10137;49.406;19.484;2023-05-23T07:15:15;8.43;;;4.73;;
19951;SDS011;10137;49.406;19.484;2023-05-23T07:17:45;12.85;;;4.72;;
19951;SDS011;10137;49.406;19.484;2023-05-23T07:20:13;7.68;;;4.13;;
19951;SDS011;10137;49.406;19.484;2023-05-23T07:22:41;7.68;;;4.60;;
19951;SDS011;10137;49.406;19.484;2023-05-23T07:25:10;6.68;;;4.80;;
19951;SDS011;10137;49.406;19.484;2023-05-23T07:27:39;8.55;;;5.20;;
19951;SDS011;10137;49.406;19.484;2023-05-23T07:30:07;6.75;;;4.40;;
19951;SDS011;10137;49.406;19.484;2023-05-23T07:32:37;8.20;;;4.47;;
19951;SDS011;10137;49.406;19.484;2023-05-23T07:35:06;6.97;;;4.78;;
19951;SDS011;10137;49.406;19.484;2023-05-23T07:37:34;7.97;;;4.40;;
19951;SDS011;10137;49.406;19.484;2023-05-23T07:40:03;13.40;;;5.15;;
19951;SDS011;10137;49.406;19.484;2023-05-23T07:42:32;10.05;;;4.50;;
19951;SDS011;10137;49.406;19.484;2023-05-23T07:45:01;9.10;;;4.65;;
19951;SDS011;10137;49.406;19.484;2023-05-23T07:47:29;9.48;;;4.28;;
19951;SDS011;10137;49.406;19.484;2023-05-23T07:49:59;15.38;;;5.10;;
19951;SDS011;10137;49.406;19.484;2023-05-23T07:52:30;11.02;;;4.55;;
19951;SDS011;10137;49.406;19.484;2023-05-23T07:54:58;10.02;;;4.90;;
19951;SDS011;10137;49.406;19.484;2023-05-23T07:57:27;10.15;;;4.05;;
19951;SDS011;10137;49.406;19.484;2023-05-23T07:59:55;9.25;;;4.10;;
19951;SDS011;10137;49.406;19.484;2023-05-23T08:02:23;15.10;;;4.00;;
19951;SDS011;10137;49.406;19.484;2023-05-23T08:04:50;9.77;;;4.50;;
19951;SDS011;10137;49.406;19.484;2023-05-23T08:07:20;9.38;;;4.47;;
19951;SDS011;10137;49.406;19.484;2023-05-23T08:09:48;13.30;;;4.50;;
19951;SDS011;10137;49.406;19.484;2023-05-23T08:12:15;7.70;;;4.40;;
19951;SDS011;10137;49.406;19.484;2023-05-23T08:14:42;9.77;;;3.97;;
19951;SDS011;10137;49.406;19.484;2023-05-23T08:17:11;10.43;;;3.65;;
19951;SDS011;10137;49.406;19.484;2023-05-23T08:19:39;9.57;;;3.85;;
19951;SDS011;10137;49.406;19.484;2023-05-23T08:22:08;5.13;;;3.35;;
19951;SDS011;10137;49.406;19.484;2023-05-23T08:24:37;8.02;;;4.00;;
19951;SDS011;10137;49.406;19.484;2023-05-23T08:27:05;4.47;;;3.30;;
19951;SDS011;10137;49.406;19.484;2023-05-23T08:29:35;5.80;;;3.05;;
19951;SDS011;10137;49.406;19.484;2023-05-23T08:32:04;5.22;;;3.40;;
19951;SDS011;10137;49.406;19.484;2023-05-23T08:34:47;7.43;;;3.80;;
19951;SDS011;10137;49.406;19.484;2023-05-23T08:37:14;3.83;;;3.10;;
19951;SDS011;10137;49.406;19.484;2023-05-23T08:39:45;5.32;;;3.40;;
19951;SDS011;10137;49.406;19.484;2023-05-23T08:42:13;11.88;;;3.65;;
19951;SDS011;10137;49.406;19.484;2023-05-23T08:44:41;12.45;;;3.58;;
19951;SDS011;10137;49.406;19.484;2023-05-23T08:47:10;7.60;;;4.00;;
19951;SDS011;10137;49.406;19.484;2023-05-23T08:49:43;7.00;;;3.30;;
19951;SDS011;10137;49.406;19.484;2023-05-23T08:52:12;9.10;;;3.75;;
19951;SDS011;10137;49.406;19.484;2023-05-23T08:54:46;5.70;;;3.33;;
19951;SDS011;10137;49.406;19.484;2023-05-23T08:57:14;5.55;;;3.45;;
19951;SDS011;10137;49.406;19.484;2023-05-23T08:59:43;5.72;;;3.40;;
19951;SDS011;10137;49.406;19.484;2023-05-23T09:02:12;9.30;;;3.40;;
19951;SDS011;10137;49.406;19.484;2023-05-23T09:04:41;10.48;;;3.85;;
19951;SDS011;10137;49.406;19.484;2023-05-23T09:07:09;12.90;;;4.40;;
19951;SDS011;10137;49.406;19.484;2023-05-23T09:09:39;12.18;;;3.80;;
19951;SDS011;10137;49.406;19.484;2023-05-23T09:12:09;10.15;;;3.75;;
19951;SDS011;10137;49.406;19.484;2023-05-23T09:14:39;8.70;;;3.13;;
19951;SDS011;10137;49.406;19.484;2023-05-23T09:17:07;6.40;;;3.25;;
19951;SDS011;10137;49.406;19.484;2023-05-23T09:19:39;8.88;;;3.08;;
19951;SDS011;10137;49.406;19.484;2023-05-23T09:22:07;12.48;;;3.28;;
19951;SDS011;10137;49.406;19.484;2023-05-23T09:24:37;5.55;;;3.65;;
19951;SDS011;10137;49.406;19.484;2023-05-23T09:27:06;6.03;;;3.40;;
19951;SDS011;10137;49.406;19.484;2023-05-23T09:29:39;5.38;;;3.80;;
19951;SDS011;10137;49.406;19.484;2023-05-23T09:32:10;7.75;;;3.58;;
19951;SDS011;10137;49.406;19.484;2023-05-23T09:34:40;4.90;;;3.20;;
19951;SDS011;10137;49.406;19.484;2023-05-23T09:37:10;7.40;;;3.20;;
19951;SDS011;10137;49.406;19.484;2023-05-23T09:39:45;8.82;;;3.85;;
19951;SDS011;10137;49.406;19.484;2023-05-23T09:42:18;6.30;;;3.70;;
19951;SDS011;10137;49.406;19.484;2023-05-23T09:44:49;8.75;;;3.58;;
19951;SDS011;10137;49.406;19.484;2023-05-23T09:47:17;11.13;;;4.07;;
19951;SDS011;10137;49.406;19.484;2023-05-23T09:49:45;9.15;;;3.70;;
19951;SDS011;10137;49.406;19.484;2023-05-23T09:52:13;5.00;;;3.45;;
19951;SDS011;10137;49.406;19.484;2023-05-23T09:54:41;4.75;;;3.72;;
19951;SDS011;10137;49.406;19.484;2023-05-23T09:57:09;6.90;;;3.60;;
19951;SDS011;10137;49.406;19.484;2023-05-23T09:59:38;7.50;;;3.53;;
19951;SDS011;10137;49.406;19.484;2023-05-23T10:02:11;8.48;;;3.40;;
19951;SDS011;10137;49.406;19.484;2023-05-23T10:04:41;7.82;;;3.25;;
19951;SDS011;10137;49.406;19.484;2023-05-23T10:07:11;6.63;;;3.58;;
19951;SDS011;10137;49.406;19.484;2023-05-23T10:09:44;12.02;;;3.65;;
19951;SDS011;10137;49.406;19.484;2023-05-23T10:12:31;5.63;;;3.10;;
19951;SDS011;10137;49.406;19.484;2023-05-23T10:15:06;4.80;;;3.38;;
19951;SDS011;10137;49.406;19.484;2023-05-23T10:17:38;6.72;;;3.28;;
19951;SDS011;10137;49.406;19.484;2023-05-23T10:20:14;5.10;;;3.25;;
19951;SDS011;10137;49.406;19.484;2023-05-23T10:22:45;7.63;;;3.75;;
19951;SDS011;10137;49.406;19.484;2023-05-23T10:25:17;10.23;;;3.53;;
19951;SDS011;10137;49.406;19.484;2023-05-23T10:27:46;8.25;;;3.67;;
19951;SDS011;10137;49.406;19.484;2023-05-23T10:30:15;8.07;;;3.28;;
19951;SDS011;10137;49.406;19.484;2023-05-23T10:32:47;11.15;;;4.53;;
19951;SDS011;10137;49.406;19.484;2023-05-23T10:35:17;10.48;;;3.63;;
19951;SDS011;10137;49.406;19.484;2023-05-23T10:37:54;8.18;;;3.22;;
19951;SDS011;10137;49.406;19.484;2023-05-23T10:40:30;12.52;;;3.95;;
19951;SDS011;10137;49.406;19.484;2023-05-23T10:43:05;5.03;;;3.45;;
19951;SDS011;10137;49.406;19.484;2023-05-23T10:45:43;5.25;;;3.85;;
19951;SDS011;10137;49.406;19.484;2023-05-23T10:48:30;6.57;;;3.35;;
19951;SDS011;10137;49.406;19.484;2023-05-23T10:51:04;14.68;;;4.35;;
19951;SDS011;10137;49.406;19.484;2023-05-23T10:53:33;12.88;;;4.93;;
19951;SDS011;10137;49.406;19.484;2023-05-23T10:56:04;6.72;;;4.10;;
19951;SDS011;10137;49.406;19.484;2023-05-23T10:58:32;17.20;;;5.65;;
19951;SDS011;10137;49.406;19.484;2023-05-23T11:01:04;14.80;;;4.72;;
19951;SDS011;10137;49.406;19.484;2023-05-23T11:03:47;8.70;;;4.03;;
19951;SDS011;10137;49.406;19.484;2023-05-23T11:06:29;9.05;;;3.70;;
19951;SDS011;10137;49.406;19.484;2023-05-23T11:09:02;5.43;;;3.30;;
19951;SDS011;10137;49.406;19.484;2023-05-23T11:14:30;6.78;;;3.53;;
19951;SDS011;10137;49.406;19.484;2023-05-23T11:17:00;9.38;;;4.28;;
19951;SDS011;10137;49.406;19.484;2023-05-23T11:22:30;6.40;;;3.97;;
19951;SDS011;10137;49.406;19.484;2023-05-23T11:25:00;9.90;;;4.50;;
19951;SDS011;10137;49.406;19.484;2023-05-23T11:27:29;6.45;;;4.50;;
19951;SDS011;10137;49.406;19.484;2023-05-23T11:30:09;11.93;;;5.10;;
19951;SDS011;10137;49.406;19.484;2023-05-23T11:32:41;9.02;;;5.03;;
19951;SDS011;10137;49.406;19.484;2023-05-23T11:35:21;12.48;;;5.57;;
19951;SDS011;10137;49.406;19.484;2023-05-23T11:38:01;12.88;;;6.50;;
19951;SDS011;10137;49.406;19.484;2023-05-23T11:40:31;8.88;;;5.72;;
19951;SDS011;10137;49.406;19.484;2023-05-23T11:43:05;10.70;;;7.10;;
19951;SDS011;10137;49.406;19.484;2023-05-23T11:45:35;12.30;;;6.63;;
19951;SDS011;10137;49.406;19.484;2023-05-23T11:48:11;6.75;;;4.70;;
19951;SDS011;10137;49.406;19.484;2023-05-23T11:50:47;8.55;;;4.40;;
19951;SDS011;10137;49.406;19.484;2023-05-23T11:53:17;6.78;;;4.70;;
19951;SDS011;10137;49.406;19.484;2023-05-23T11:55:50;6.43;;;4.63;;
19951;SDS011;10137;49.406;19.484;2023-05-23T11:58:25;6.05;;;4.82;;
19951;SDS011;10137;49.406;19.484;2023-05-23T12:01:00;8.98;;;5.32;;
19951;SDS011;10137;49.406;19.484;2023-05-23T12:03:31;8.60;;;5.45;;
19951;SDS011;10137;49.406;19.484;2023-05-23T12:06:04;7.13;;;5.03;;
19951;SDS011;10137;49.406;19.484;2023-05-23T12:08:32;11.32;;;5.20;;
19951;SDS011;10137;49.406;19.484;2023-05-23T12:11:03;15.75;;;7.00;;
19951;SDS011;10137;49.406;19.484;2023-05-23T12:13:32;6.63;;;4.93;;
19951;SDS011;10137;49.406;19.484;2023-05-23T12:16:03;5.80;;;4.68;;
19951;SDS011;10137;49.406;19.484;2023-05-23T12:18:32;9.40;;;5.10;;
19951;SDS011;10137;49.406;19.484;2023-05-23T12:21:00;7.50;;;4.75;;
19951;SDS011;10137;49.406;19.484;2023-05-23T12:23:32;8.05;;;4.55;;
19951;SDS011;10137;49.406;19.484;2023-05-23T12:26:03;5.85;;;4.28;;
19951;SDS011;10137;49.406;19.484;2023-05-23T12:28:36;6.68;;;4.28;;
19951;SDS011;10137;49.406;19.484;2023-05-23T12:31:09;7.35;;;4.63;;
19951;SDS011;10137;49.406;19.484;2023-05-23T12:33:46;8.18;;;4.82;;
19951;SDS011;10137;49.406;19.484;2023-05-23T12:36:14;7.90;;;4.95;;
19951;SDS011;10137;49.406;19.484;2023-05-23T12:38:52;6.63;;;3.97;;
19951;SDS011;10137;49.406;19.484;2023-05-23T12:41:27;5.15;;;3.85;;
19951;SDS011;10137;49.406;19.484;2023-05-23T12:43:59;9.57;;;3.90;;
19951;SDS011;10137;49.406;19.484;2023-05-23T12:46:31;8.68;;;4.22;;
19951;SDS011;10137;49.406;19.484;2023-05-23T12:49:00;7.38;;;3.80;;
19951;SDS011;10137;49.406;19.484;2023-05-23T12:51:33;5.97;;;3.50;;
19951;SDS011;10137;49.406;19.484;2023-05-23T12:54:07;6.43;;;3.60;;
19951;SDS011;10137;49.406;19.484;2023-05-23T12:56:36;4.43;;;3.25;;
19951;SDS011;10137;49.406;19.484;2023-05-23T12:59:05;4.70;;;2.97;;
19951;SDS011;10137;49.406;19.484;2023-05-23T13:01:37;5.03;;;3.38;;
19951;SDS011;10137;49.406;19.484;2023-05-23T13:04:04;4.35;;;3.17;;
19951;SDS011;10137;49.406;19.484;2023-05-23T13:06:34;3.70;;;2.90;;
19951;SDS011;10137;49.406;19.484;2023-05-23T13:09:07;4.88;;;2.83;;
19951;SDS011;10137;49.406;19.484;2023-05-23T13:11:34;5.28;;;3.22;;
19951;SDS011;10137;49.406;19.484;2023-05-23T13:14:02;4.85;;;3.38;;
19951;SDS011;10137;49.406;19.484;2023-05-23T13:16:35;4.75;;;3.60;;
19951;SDS011;10137;49.406;19.484;2023-05-23T13:19:03;5.70;;;3.60;;
19951;SDS011;10137;49.406;19.484;2023-05-23T13:21:30;6.35;;;3.50;;
19951;SDS011;10137;49.406;19.484;2023-05-23T13:23:57;6.57;;;4.25;;
19951;SDS011;10137;49.406;19.484;2023-05-23T13:26:25;9.13;;;3.95;;
19951;SDS011;10137;49.406;19.484;2023-05-23T13:28:54;5.88;;;3.55;;
19951;SDS011;10137;49.406;19.484;2023-05-23T13:31:21;4.70;;;3.25;;
19951;SDS011;10137;49.406;19.484;2023-05-23T13:33:48;5.43;;;3.40;;
19951;SDS011;10137;49.406;19.484;2023-05-23T13:36:15;5.07;;;3.58;;
19951;SDS011;10137;49.406;19.484;2023-05-23T13:38:42;6.82;;;3.90;;
19951;SDS011;10137;49.406;19.484;2023-05-23T13:41:09;7.00;;;3.75;;
19951;SDS011;10137;49.406;19.484;2023-05-23T13:43:38;8.55;;;3.70;;
19951;SDS011;10137;49.406;19.484;2023-05-23T13:46:05;6.80;;;3.53;;
19951;SDS011;10137;49.406;19.484;2023-05-23T13:48:32;6.75;;;2.90;;
19951;SDS011;10137;49.406;19.484;2023-05-23T13:50:59;4.95;;;3.40;;
19951;SDS011;10137;49.406;19.484;2023-05-23T13:53:27;4.10;;;3.38;;
19951;SDS011;10137;49.406;19.484;2023-05-23T13:55:54;6.75;;;4.03;;
19951;SDS011;10137;49.406;19.484;2023-05-23T13:58:22;9.60;;;5.15;;
19951;SDS011;10137;49.406;19.484;2023-05-23T14:00:51;8.65;;;4.30;;
19951;SDS011;10137;49.406;19.484;2023-05-23T14:03:18;5.78;;;3.65;;
19951;SDS011;10137;49.406;19.484;2023-05-23T14:05:45;4.97;;;3.58;;
19951;SDS011;10137;49.406;19.484;2023-05-23T14:08:12;9.93;;;5.25;;
19951;SDS011;10137;49.406;19.484;2023-05-23T14:10:39;8.02;;;5.90;;
19951;SDS011;10137;49.406;19.484;2023-05-23T14:13:06;6.47;;;3.97;;
19951;SDS011;10137;49.406;19.484;2023-05-23T14:15:33;4.72;;;3.33;;
19951;SDS011;10137;49.406;19.484;2023-05-23T14:18:03;4.65;;;3.28;;
19951;SDS011;10137;49.406;19.484;2023-05-23T14:20:31;6.70;;;3.58;;
19951;SDS011;10137;49.406;19.484;2023-05-23T14:22:58;7.00;;;4.00;;
19951;SDS011;10137;49.406;19.484;2023-05-23T14:25:28;6.15;;;3.97;;
19951;SDS011;10137;49.406;19.484;2023-05-23T14:27:55;5.40;;;3.58;;
19951;SDS011;10137;49.406;19.484;2023-05-23T14:30:22;10.25;;;3.30;;
19951;SDS011;10137;49.406;19.484;2023-05-23T14:32:50;5.70;;;3.22;;
19951;SDS011;10137;49.406;19.484;2023-05-23T14:35:18;5.22;;;3.17;;
19951;SDS011;10137;49.406;19.484;2023-05-23T14:37:46;5.40;;;3.70;;
19951;SDS011;10137;49.406;19.484;2023-05-23T14:40:13;9.82;;;2.92;;
19951;SDS011;10137;49.406;19.484;2023-05-23T14:42:41;8.57;;;3.33;;
19951;SDS011;10137;49.406;19.484;2023-05-23T14:45:08;7.90;;;3.35;;
19951;SDS011;10137;49.406;19.484;2023-05-23T14:47:36;6.53;;;2.97;;
19951;SDS011;10137;49.406;19.484;2023-05-23T14:50:04;5.18;;;3.00;;
19951;SDS011;10137;49.406;19.484;2023-05-23T14:52:33;5.65;;;3.22;;
19951;SDS011;10137;49.406;19.484;2023-05-23T14:55:00;5.40;;;3.28;;